sensor_id;sensor_type;location;lat;lon;timestamp;temperature;humidity
11736;DHT22;5924;51.398;7.088;2023-09-19T00:00:34;17.10;99.90
11736;DHT22;5924;51.398;7.088;2023-09-19T00:03:01;14.40;99.90
11736;DHT22;5924;51.398;7.088;2023-09-19T00:05:28;14.30;99.90
11736;DHT22;5924;51.398;7.088;2023-09-19T00:07:56;14.30;99.90
11736;DHT22;5924;51.398;7.088;2023-09-19T00:10:24;14.40;99.90
11736;DHT22;5924;51.398;7.088;2023-09-19T00:12:53;14.30;99.90
11736;DHT22;5924;51.398;7.088;2023-09-19T00:15:23;14.30;99.90
11736;DHT22;5924;51.398;7.088;2023-09-19T00:17:49;14.30;99.90
11736;DHT22;5924;51.398;7.088;2023-09-19T00:20:17;14.40;99.90
11736;DHT22;5924;51.398;7.088;2023-09-19T00:22:44;14.40;99.90
11736;DHT22;5924;51.398;7.088;2023-09-19T00:25:10;14.40;99.90
11736;DHT22;5924;51.398;7.088;2023-09-19T00:27:38;14.40;99.90
11736;DHT22;5924;51.398;7.088;2023-09-19T00:30:08;14.40;99.90
11736;DHT22;5924;51.398;7.088;2023-09-19T00:32:45;14.30;99.90
11736;DHT22;5924;51.398;7.088;2023-09-19T00:35:13;14.30;99.90
11736;DHT22;5924;51.398;7.088;2023-09-19T00:37:40;14.30;99.90
11736;DHT22;5924;51.398;7.088;2023-09-19T00:40:07;14.30;99.90
11736;DHT22;5924;51.398;7.088;2023-09-19T00:42:39;14.30;99.90
11736;DHT22;5924;51.398;7.088;2023-09-19T00:45:07;14.20;99.90
11736;DHT22;5924;51.398;7.088;2023-09-19T00:47:36;14.20;99.90
11736;DHT22;5924;51.398;7.088;2023-09-19T00:50:04;14.20;99.90
11736;DHT22;5924;51.398;7.088;2023-09-19T00:52:33;13.20;99.90
11736;DHT22;5924;51.398;7.088;2023-09-19T00:54:59;14.10;99.90
11736;DHT22;5924;51.398;7.088;2023-09-19T00:57:25;14.10;99.90
11736;DHT22;5924;51.398;7.088;2023-09-19T00:59:54;14.10;99.90
11736;DHT22;5924;51.398;7.088;2023-09-19T01:02:20;14.10;99.90
11736;DHT22;5924;51.398;7.088;2023-09-19T01:04:46;14.10;99.90
11736;DHT22;5924;51.398;7.088;2023-09-19T01:07:12;14.00;99.90
11736;DHT22;5924;51.398;7.088;2023-09-19T01:09:40;14.00;99.90
11736;DHT22;5924;51.398;7.088;2023-09-19T01:12:07;14.00;99.90
11736;DHT22;5924;51.398;7.088;2023-09-19T01:17:34;14.00;99.90
11736;DHT22;5924;51.398;7.088;2023-09-19T01:20:26;14.00;99.90
11736;DHT22;5924;51.398;7.088;2023-09-19T01:23:25;14.00;99.90
11736;DHT22;5924;51.398;7.088;2023-09-19T01:26:20;14.00;99.90
11736;DHT22;5924;51.398;7.088;2023-09-19T01:31:33;13.90;99.90
11736;DHT22;5924;51.398;7.088;2023-09-19T01:34:03;13.90;99.90
11736;DHT22;5924;51.398;7.088;2023-09-19T01:36:35;13.90;99.90
11736;DHT22;5924;51.398;7.088;2023-09-19T01:39:06;13.90;99.90
11736;DHT22;5924;51.398;7.088;2023-09-19T01:42:02;13.90;99.90
11736;DHT22;5924;51.398;7.088;2023-09-19T01:44:55;13.90;99.90
11736;DHT22;5924;51.398;7.088;2023-09-19T01:47:41;13.80;99.90
11736;DHT22;5924;51.398;7.088;2023-09-19T01:50:50;13.80;99.90
11736;DHT22;5924;51.398;7.088;2023-09-19T01:53:26;13.90;99.90
11736;DHT22;5924;51.398;7.088;2023-09-19T01:55:57;13.90;99.90
11736;DHT22;5924;51.398;7.088;2023-09-19T02:01:11;13.90;99.90
11736;DHT22;5924;51.398;7.088;2023-09-19T02:03:39;13.80;99.90
11736;DHT22;5924;51.398;7.088;2023-09-19T02:06:05;13.80;99.90
11736;DHT22;5924;51.398;7.088;2023-09-19T02:08:37;13.80;99.90
11736;DHT22;5924;51.398;7.088;2023-09-19T02:11:02;13.70;99.90
11736;DHT22;5924;51.398;7.088;2023-09-19T02:13:28;13.70;99.90
11736;DHT22;5924;51.398;7.088;2023-09-19T02:15:57;13.70;99.90
11736;DHT22;5924;51.398;7.088;2023-09-19T02:18:23;13.70;99.90
11736;DHT22;5924;51.398;7.088;2023-09-19T02:20:48;13.70;99.90
11736;DHT22;5924;51.398;7.088;2023-09-19T02:23:14;13.70;99.90
11736;DHT22;5924;51.398;7.088;2023-09-19T02:25:41;13.80;99.90
11736;DHT22;5924;51.398;7.088;2023-09-19T02:28:10;12.50;99.90
11736;DHT22;5924;51.398;7.088;2023-09-19T02:30:37;13.70;99.90
11736;DHT22;5924;51.398;7.088;2023-09-19T02:33:03;13.70;99.90
11736;DHT22;5924;51.398;7.088;2023-09-19T02:35:29;13.70;99.90
11736;DHT22;5924;51.398;7.088;2023-09-19T02:37:58;13.70;99.90
11736;DHT22;5924;51.398;7.088;2023-09-19T02:40:24;13.70;99.90
11736;DHT22;5924;51.398;7.088;2023-09-19T02:42:55;13.70;99.90
11736;DHT22;5924;51.398;7.088;2023-09-19T02:45:21;13.70;99.90
11736;DHT22;5924;51.398;7.088;2023-09-19T02:47:48;13.60;99.90
11736;DHT22;5924;51.398;7.088;2023-09-19T02:50:14;13.60;99.90
11736;DHT22;5924;51.398;7.088;2023-09-19T02:52:43;13.50;99.90
11736;DHT22;5924;51.398;7.088;2023-09-19T02:55:13;13.50;99.90
11736;DHT22;5924;51.398;7.088;2023-09-19T02:57:40;13.50;99.90
11736;DHT22;5924;51.398;7.088;2023-09-19T03:00:09;13.50;99.90
11736;DHT22;5924;51.398;7.088;2023-09-19T03:02:38;13.50;99.90
11736;DHT22;5924;51.398;7.088;2023-09-19T03:05:08;13.50;99.90
11736;DHT22;5924;51.398;7.088;2023-09-19T03:07:34;13.60;99.90
11736;DHT22;5924;51.398;7.088;2023-09-19T03:10:00;13.50;99.90
11736;DHT22;5924;51.398;7.088;2023-09-19T03:12:26;13.50;99.90
11736;DHT22;5924;51.398;7.088;2023-09-19T03:14:52;13.50;99.90
11736;DHT22;5924;51.398;7.088;2023-09-19T03:17:17;13.50;99.90
11736;DHT22;5924;51.398;7.088;2023-09-19T03:19:45;13.50;99.90
11736;DHT22;5924;51.398;7.088;2023-09-19T03:22:13;13.50;99.90
11736;DHT22;5924;51.398;7.088;2023-09-19T03:24:39;13.50;99.90
11736;DHT22;5924;51.398;7.088;2023-09-19T03:27:05;13.50;99.90
11736;DHT22;5924;51.398;7.088;2023-09-19T03:29:31;13.40;99.90
11736;DHT22;5924;51.398;7.088;2023-09-19T03:31:56;13.40;99.90
11736;DHT22;5924;51.398;7.088;2023-09-19T03:34:22;13.40;99.90
11736;DHT22;5924;51.398;7.088;2023-09-19T03:36:48;13.40;99.90
11736;DHT22;5924;51.398;7.088;2023-09-19T03:39:13;12.20;99.90
11736;DHT22;5924;51.398;7.088;2023-09-19T03:41:41;13.30;99.90
11736;DHT22;5924;51.398;7.088;2023-09-19T03:44:07;13.30;99.90
11736;DHT22;5924;51.398;7.088;2023-09-19T03:46:33;13.30;99.90
11736;DHT22;5924;51.398;7.088;2023-09-19T03:49:00;13.30;99.90
11736;DHT22;5924;51.398;7.088;2023-09-19T03:51:26;13.30;99.90
11736;DHT22;5924;51.398;7.088;2023-09-19T03:53:52;13.20;99.90
11736;DHT22;5924;51.398;7.088;2023-09-19T03:56:17;13.30;99.90
11736;DHT22;5924;51.398;7.088;2023-09-19T03:58:43;13.20;99.90
11736;DHT22;5924;51.398;7.088;2023-09-19T04:01:08;13.20;99.90
11736;DHT22;5924;51.398;7.088;2023-09-19T04:03:34;13.30;99.90
11736;DHT22;5924;51.398;7.088;2023-09-19T04:06:11;13.20;99.90
11736;DHT22;5924;51.398;7.088;2023-09-19T04:08:37;13.20;99.90
11736;DHT22;5924;51.398;7.088;2023-09-19T04:11:03;13.20;99.90
11736;DHT22;5924;51.398;7.088;2023-09-19T04:13:28;13.20;99.90
11736;DHT22;5924;51.398;7.088;2023-09-19T04:15:55;13.20;99.90
11736;DHT22;5924;51.398;7.088;2023-09-19T04:18:21;13.20;99.90
11736;DHT22;5924;51.398;7.088;2023-09-19T04:20:52;13.20;99.90
11736;DHT22;5924;51.398;7.088;2023-09-19T04:23:17;13.20;99.90
11736;DHT22;5924;51.398;7.088;2023-09-19T04:25:45;13.20;99.90
11736;DHT22;5924;51.398;7.088;2023-09-19T04:28:11;13.20;99.90
11736;DHT22;5924;51.398;7.088;2023-09-19T04:30:37;13.20;99.90
11736;DHT22;5924;51.398;7.088;2023-09-19T04:33:06;13.20;99.90
11736;DHT22;5924;51.398;7.088;2023-09-19T04:35:32;13.20;99.90
11736;DHT22;5924;51.398;7.088;2023-09-19T04:37:58;13.20;99.90
11736;DHT22;5924;51.398;7.088;2023-09-19T04:40:23;13.20;99.90
11736;DHT22;5924;51.398;7.088;2023-09-19T04:42:55;13.20;99.90
11736;DHT22;5924;51.398;7.088;2023-09-19T04:45:27;13.20;99.90
11736;DHT22;5924;51.398;7.088;2023-09-19T04:47:54;13.20;99.90
11736;DHT22;5924;51.398;7.088;2023-09-19T04:50:20;13.20;99.90
11736;DHT22;5924;51.398;7.088;2023-09-19T04:52:49;13.20;99.90
11736;DHT22;5924;51.398;7.088;2023-09-19T04:55:16;13.20;99.90
11736;DHT22;5924;51.398;7.088;2023-09-19T04:57:47;13.10;99.90
11736;DHT22;5924;51.398;7.088;2023-09-19T05:00:14;14.40;99.90
11736;DHT22;5924;51.398;7.088;2023-09-19T05:02:41;13.10;99.90
11736;DHT22;5924;51.398;7.088;2023-09-19T05:05:08;13.10;99.90
11736;DHT22;5924;51.398;7.088;2023-09-19T05:07:35;13.20;99.90
11736;DHT22;5924;51.398;7.088;2023-09-19T05:10:02;13.20;99.90
11736;DHT22;5924;51.398;7.088;2023-09-19T05:12:32;13.20;99.90
11736;DHT22;5924;51.398;7.088;2023-09-19T05:14:57;13.20;99.90
11736;DHT22;5924;51.398;7.088;2023-09-19T05:17:23;13.20;99.90
11736;DHT22;5924;51.398;7.088;2023-09-19T05:19:50;13.20;99.90
11736;DHT22;5924;51.398;7.088;2023-09-19T05:22:15;13.20;99.90
11736;DHT22;5924;51.398;7.088;2023-09-19T05:24:44;13.20;99.90
11736;DHT22;5924;51.398;7.088;2023-09-19T05:27:12;13.20;99.90
11736;DHT22;5924;51.398;7.088;2023-09-19T05:29:38;13.20;99.90
11736;DHT22;5924;51.398;7.088;2023-09-19T05:32:04;13.30;99.90
11736;DHT22;5924;51.398;7.088;2023-09-19T05:34:31;13.30;99.90
11736;DHT22;5924;51.398;7.088;2023-09-19T05:36:56;13.30;99.90
11736;DHT22;5924;51.398;7.088;2023-09-19T05:39:22;13.30;99.90
11736;DHT22;5924;51.398;7.088;2023-09-19T05:41:48;11.40;99.90
11736;DHT22;5924;51.398;7.088;2023-09-19T05:44:14;13.40;99.90
11736;DHT22;5924;51.398;7.088;2023-09-19T05:46:40;13.40;99.90
11736;DHT22;5924;51.398;7.088;2023-09-19T05:49:05;13.40;99.90
11736;DHT22;5924;51.398;7.088;2023-09-19T05:51:31;13.50;99.90
11736;DHT22;5924;51.398;7.088;2023-09-19T05:53:57;13.50;99.90
11736;DHT22;5924;51.398;7.088;2023-09-19T05:56:23;13.60;99.90
11736;DHT22;5924;51.398;7.088;2023-09-19T05:58:49;13.70;99.90
11736;DHT22;5924;51.398;7.088;2023-09-19T06:01:17;13.80;99.90
11736;DHT22;5924;51.398;7.088;2023-09-19T06:03:43;14.40;99.90
11736;DHT22;5924;51.398;7.088;2023-09-19T06:06:09;13.90;99.90
11736;DHT22;5924;51.398;7.088;2023-09-19T06:08:34;11.60;99.90
11736;DHT22;5924;51.398;7.088;2023-09-19T06:11:00;14.00;99.90
11736;DHT22;5924;51.398;7.088;2023-09-19T06:13:28;14.10;99.90
11736;DHT22;5924;51.398;7.088;2023-09-19T06:15:57;14.10;99.90
11736;DHT22;5924;51.398;7.088;2023-09-19T06:18:25;14.20;99.90
11736;DHT22;5924;51.398;7.088;2023-09-19T06:20:51;14.20;99.90
11736;DHT22;5924;51.398;7.088;2023-09-19T06:23:18;14.30;99.90
11736;DHT22;5924;51.398;7.088;2023-09-19T06:25:45;14.30;99.90
11736;DHT22;5924;51.398;7.088;2023-09-19T06:28:11;14.30;99.90
11736;DHT22;5924;51.398;7.088;2023-09-19T06:30:40;14.40;99.90
11736;DHT22;5924;51.398;7.088;2023-09-19T06:33:06;14.40;99.90
11736;DHT22;5924;51.398;7.088;2023-09-19T06:35:33;14.40;99.90
11736;DHT22;5924;51.398;7.088;2023-09-19T06:38:02;14.50;99.90
11736;DHT22;5924;51.398;7.088;2023-09-19T06:40:28;14.50;99.90
11736;DHT22;5924;51.398;7.088;2023-09-19T06:42:56;14.50;99.90
11736;DHT22;5924;51.398;7.088;2023-09-19T06:45:22;14.60;99.90
11736;DHT22;5924;51.398;7.088;2023-09-19T06:47:50;14.60;99.90
11736;DHT22;5924;51.398;7.088;2023-09-19T06:50:17;14.60;99.90
11736;DHT22;5924;51.398;7.088;2023-09-19T06:52:46;14.70;99.90
11736;DHT22;5924;51.398;7.088;2023-09-19T06:55:18;14.70;99.90
11736;DHT22;5924;51.398;7.088;2023-09-19T06:57:46;14.70;99.90
11736;DHT22;5924;51.398;7.088;2023-09-19T07:00:13;14.80;99.90
11736;DHT22;5924;51.398;7.088;2023-09-19T07:05:22;14.90;99.90
11736;DHT22;5924;51.398;7.088;2023-09-19T07:07:47;14.90;99.90
11736;DHT22;5924;51.398;7.088;2023-09-19T07:10:13;15.00;99.90
11736;DHT22;5924;51.398;7.088;2023-09-19T07:12:39;15.00;99.90
11736;DHT22;5924;51.398;7.088;2023-09-19T07:15:06;15.10;99.90
11736;DHT22;5924;51.398;7.088;2023-09-19T07:17:32;15.10;99.90
11736;DHT22;5924;51.398;7.088;2023-09-19T07:19:58;15.10;99.90
11736;DHT22;5924;51.398;7.088;2023-09-19T07:22:26;15.20;99.90
11736;DHT22;5924;51.398;7.088;2023-09-19T07:24:52;15.20;99.90
11736;DHT22;5924;51.398;7.088;2023-09-19T07:27:18;15.30;99.90
11736;DHT22;5924;51.398;7.088;2023-09-19T07:29:43;15.30;99.90
11736;DHT22;5924;51.398;7.088;2023-09-19T07:32:10;15.40;99.90
11736;DHT22;5924;51.398;7.088;2023-09-19T07:34:37;15.40;99.90
11736;DHT22;5924;51.398;7.088;2023-09-19T07:37:04;15.40;99.90
11736;DHT22;5924;51.398;7.088;2023-09-19T07:39:30;15.50;99.90
11736;DHT22;5924;51.398;7.088;2023-09-19T07:41:55;15.50;99.90
11736;DHT22;5924;51.398;7.088;2023-09-19T07:44:22;15.60;99.90
11736;DHT22;5924;51.398;7.088;2023-09-19T07:46:48;15.60;99.90
11736;DHT22;5924;51.398;7.088;2023-09-19T07:49:16;15.60;99.90
11736;DHT22;5924;51.398;7.088;2023-09-19T07:51:43;15.60;99.90
11736;DHT22;5924;51.398;7.088;2023-09-19T07:54:12;15.70;99.90
11736;DHT22;5924;51.398;7.088;2023-09-19T07:56:38;15.80;99.90
11736;DHT22;5924;51.398;7.088;2023-09-19T07:59:04;15.90;99.90
11736;DHT22;5924;51.398;7.088;2023-09-19T08:01:29;16.00;99.90
11736;DHT22;5924;51.398;7.088;2023-09-19T08:03:55;16.00;99.90
11736;DHT22;5924;51.398;7.088;2023-09-19T08:06:21;16.00;99.90
11736;DHT22;5924;51.398;7.088;2023-09-19T08:08:47;16.10;99.90
11736;DHT22;5924;51.398;7.088;2023-09-19T08:11:12;16.10;99.90
11736;DHT22;5924;51.398;7.088;2023-09-19T08:13:42;16.20;99.90
11736;DHT22;5924;51.398;7.088;2023-09-19T08:16:12;16.20;99.90
11736;DHT22;5924;51.398;7.088;2023-09-19T08:18:38;16.20;99.90
11736;DHT22;5924;51.398;7.088;2023-09-19T08:21:07;16.30;99.90
11736;DHT22;5924;51.398;7.088;2023-09-19T08:23:36;16.40;99.90
11736;DHT22;5924;51.398;7.088;2023-09-19T08:26:04;16.30;99.90
11736;DHT22;5924;51.398;7.088;2023-09-19T08:28:32;16.40;99.90
11736;DHT22;5924;51.398;7.088;2023-09-19T08:31:04;16.50;99.90
11736;DHT22;5924;51.398;7.088;2023-09-19T08:33:32;16.40;99.90
11736;DHT22;5924;51.398;7.088;2023-09-19T08:35:58;16.40;99.90
11736;DHT22;5924;51.398;7.088;2023-09-19T08:38:24;16.50;99.90
11736;DHT22;5924;51.398;7.088;2023-09-19T08:40:51;16.50;99.90
11736;DHT22;5924;51.398;7.088;2023-09-19T08:43:16;16.60;99.90
11736;DHT22;5924;51.398;7.088;2023-09-19T08:45:42;16.60;99.90
11736;DHT22;5924;51.398;7.088;2023-09-19T08:48:22;16.70;99.90
11736;DHT22;5924;51.398;7.088;2023-09-19T08:50:56;16.80;99.90
11736;DHT22;5924;51.398;7.088;2023-09-19T08:55:54;17.00;99.90
11736;DHT22;5924;51.398;7.088;2023-09-19T08:58:26;17.10;99.90
11736;DHT22;5924;51.398;7.088;2023-09-19T09:00:55;17.20;99.90
11736;DHT22;5924;51.398;7.088;2023-09-19T09:03:22;17.30;99.90
11736;DHT22;5924;51.398;7.088;2023-09-19T09:05:50;17.30;99.90
11736;DHT22;5924;51.398;7.088;2023-09-19T09:08:17;17.40;99.90
11736;DHT22;5924;51.398;7.088;2023-09-19T09:10:44;17.40;99.90
11736;DHT22;5924;51.398;7.088;2023-09-19T09:13:11;16.30;99.90
11736;DHT22;5924;51.398;7.088;2023-09-19T09:15:41;17.40;99.90
11736;DHT22;5924;51.398;7.088;2023-09-19T09:18:07;17.40;99.90
11736;DHT22;5924;51.398;7.088;2023-09-19T09:20:32;17.40;99.90
11736;DHT22;5924;51.398;7.088;2023-09-19T09:22:58;17.40;99.90
11736;DHT22;5924;51.398;7.088;2023-09-19T09:25:52;17.40;99.90
11736;DHT22;5924;51.398;7.088;2023-09-19T09:28:21;17.50;99.90
11736;DHT22;5924;51.398;7.088;2023-09-19T09:30:47;17.50;99.90
11736;DHT22;5924;51.398;7.088;2023-09-19T09:33:14;17.50;99.90
11736;DHT22;5924;51.398;7.088;2023-09-19T09:35:55;17.50;99.90
11736;DHT22;5924;51.398;7.088;2023-09-19T09:38:27;17.70;99.90
11736;DHT22;5924;51.398;7.088;2023-09-19T09:40:55;17.70;99.90
11736;DHT22;5924;51.398;7.088;2023-09-19T09:43:39;17.80;99.90
11736;DHT22;5924;51.398;7.088;2023-09-19T09:46:18;17.90;99.90
11736;DHT22;5924;51.398;7.088;2023-09-19T09:51:42;18.10;99.90
11736;DHT22;5924;51.398;7.088;2023-09-19T09:54:18;18.10;99.90
11736;DHT22;5924;51.398;7.088;2023-09-19T09:56:55;18.10;99.90
11736;DHT22;5924;51.398;7.088;2023-09-19T09:59:48;18.00;99.90
11736;DHT22;5924;51.398;7.088;2023-09-19T10:02:29;18.00;99.90
11736;DHT22;5924;51.398;7.088;2023-09-19T10:04:58;17.80;99.90
11736;DHT22;5924;51.398;7.088;2023-09-19T10:07:39;17.80;99.90
11736;DHT22;5924;51.398;7.088;2023-09-19T10:10:08;18.00;99.90
11736;DHT22;5924;51.398;7.088;2023-09-19T10:12:55;18.00;99.90
11736;DHT22;5924;51.398;7.088;2023-09-19T10:15:31;17.90;99.90
11736;DHT22;5924;51.398;7.088;2023-09-19T10:18:00;17.80;99.90
11736;DHT22;5924;51.398;7.088;2023-09-19T10:20:28;17.90;99.90
11736;DHT22;5924;51.398;7.088;2023-09-19T10:23:21;18.10;99.90
11736;DHT22;5924;51.398;7.088;2023-09-19T10:25:49;18.40;99.90
11736;DHT22;5924;51.398;7.088;2023-09-19T10:28:17;18.60;99.90
11736;DHT22;5924;51.398;7.088;2023-09-19T10:30:47;18.60;99.90
11736;DHT22;5924;51.398;7.088;2023-09-19T10:33:22;18.60;99.90
11736;DHT22;5924;51.398;7.088;2023-09-19T10:35:51;18.60;99.90
11736;DHT22;5924;51.398;7.088;2023-09-19T10:38:24;18.50;99.90
11736;DHT22;5924;51.398;7.088;2023-09-19T10:40:54;18.40;99.90
11736;DHT22;5924;51.398;7.088;2023-09-19T10:43:21;18.20;99.90
11736;DHT22;5924;51.398;7.088;2023-09-19T10:45:50;18.00;99.90
11736;DHT22;5924;51.398;7.088;2023-09-19T10:48:18;17.90;99.90
11736;DHT22;5924;51.398;7.088;2023-09-19T10:56:09;18.10;99.90
11736;DHT22;5924;51.398;7.088;2023-09-19T10:58:43;18.10;99.90
11736;DHT22;5924;51.398;7.088;2023-09-19T11:01:11;18.20;99.90
11736;DHT22;5924;51.398;7.088;2023-09-19T11:03:41;18.50;99.90
11736;DHT22;5924;51.398;7.088;2023-09-19T11:06:15;18.60;99.90
11736;DHT22;5924;51.398;7.088;2023-09-19T11:09:02;18.70;99.90
11736;DHT22;5924;51.398;7.088;2023-09-19T11:14:37;18.60;99.90
11736;DHT22;5924;51.398;7.088;2023-09-19T11:30:40;19.50;99.90
11736;DHT22;5924;51.398;7.088;2023-09-19T11:33:26;19.60;99.90
11736;DHT22;5924;51.398;7.088;2023-09-19T11:36:01;19.90;99.90
11736;DHT22;5924;51.398;7.088;2023-09-19T11:43:51;19.80;99.90
11736;DHT22;5924;51.398;7.088;2023-09-19T11:46:17;19.70;99.90
11736;DHT22;5924;51.398;7.088;2023-09-19T11:48:48;19.90;99.90
11736;DHT22;5924;51.398;7.088;2023-09-19T11:51:24;19.70;99.90
11736;DHT22;5924;51.398;7.088;2023-09-19T11:53:57;19.50;99.90
11736;DHT22;5924;51.398;7.088;2023-09-19T11:56:27;19.60;99.90
11736;DHT22;5924;51.398;7.088;2023-09-19T11:58:57;19.70;99.90
11736;DHT22;5924;51.398;7.088;2023-09-19T12:01:32;19.80;99.90
11736;DHT22;5924;51.398;7.088;2023-09-19T12:04:00;19.80;99.90
11736;DHT22;5924;51.398;7.088;2023-09-19T12:06:28;20.00;99.90
11736;DHT22;5924;51.398;7.088;2023-09-19T12:08:55;20.20;99.90
11736;DHT22;5924;51.398;7.088;2023-09-19T12:11:23;20.30;99.90
11736;DHT22;5924;51.398;7.088;2023-09-19T12:13:49;20.40;99.90
11736;DHT22;5924;51.398;7.088;2023-09-19T12:16:20;20.30;99.90
11736;DHT22;5924;51.398;7.088;2023-09-19T12:18:50;20.60;99.90
11736;DHT22;5924;51.398;7.088;2023-09-19T12:21:32;21.40;99.90
11736;DHT22;5924;51.398;7.088;2023-09-19T12:26:45;22.80;99.90
11736;DHT22;5924;51.398;7.088;2023-09-19T12:29:17;23.70;99.90
11736;DHT22;5924;51.398;7.088;2023-09-19T12:31:56;24.20;99.90
11736;DHT22;5924;51.398;7.088;2023-09-19T12:34:30;24.70;99.90
11736;DHT22;5924;51.398;7.088;2023-09-19T12:37:17;24.90;99.90
11736;DHT22;5924;51.398;7.088;2023-09-19T12:39:51;25.30;99.90
11736;DHT22;5924;51.398;7.088;2023-09-19T12:42:25;26.60;99.90
11736;DHT22;5924;51.398;7.088;2023-09-19T12:44:58;25.80;99.90
11736;DHT22;5924;51.398;7.088;2023-09-19T12:47:27;26.10;99.90
11736;DHT22;5924;51.398;7.088;2023-09-19T12:50:09;26.60;99.90
11736;DHT22;5924;51.398;7.088;2023-09-19T12:52:55;26.50;99.90
11736;DHT22;5924;51.398;7.088;2023-09-19T12:55:28;26.40;99.90
11736;DHT22;5924;51.398;7.088;2023-09-19T12:58:13;26.40;99.90
11736;DHT22;5924;51.398;7.088;2023-09-19T13:00:44;26.70;99.90
11736;DHT22;5924;51.398;7.088;2023-09-19T13:03:13;27.10;99.90
11736;DHT22;5924;51.398;7.088;2023-09-19T13:05:55;27.10;99.90
11736;DHT22;5924;51.398;7.088;2023-09-19T13:08:25;26.90;99.90
11736;DHT22;5924;51.398;7.088;2023-09-19T13:11:02;26.50;99.90
11736;DHT22;5924;51.398;7.088;2023-09-19T13:13:28;26.30;99.90
11736;DHT22;5924;51.398;7.088;2023-09-19T13:15:55;26.30;99.90
11736;DHT22;5924;51.398;7.088;2023-09-19T13:18:23;26.20;99.90
11736;DHT22;5924;51.398;7.088;2023-09-19T13:21:08;26.00;99.90
11736;DHT22;5924;51.398;7.088;2023-09-19T13:23:38;25.30;99.90
11736;DHT22;5924;51.398;7.088;2023-09-19T13:26:03;24.70;99.90
11736;DHT22;5924;51.398;7.088;2023-09-19T13:28:33;24.20;99.90
11736;DHT22;5924;51.398;7.088;2023-09-19T13:30:59;23.80;99.90
11736;DHT22;5924;51.398;7.088;2023-09-19T13:33:25;23.50;99.90
11736;DHT22;5924;51.398;7.088;2023-09-19T13:35:52;23.20;99.90
11736;DHT22;5924;51.398;7.088;2023-09-19T13:38:18;23.00;99.90
11736;DHT22;5924;51.398;7.088;2023-09-19T13:40:47;23.20;99.90
11736;DHT22;5924;51.398;7.088;2023-09-19T13:43:13;23.20;99.90
11736;DHT22;5924;51.398;7.088;2023-09-19T13:45:39;23.10;99.90
11736;DHT22;5924;51.398;7.088;2023-09-19T13:48:07;23.10;99.90
11736;DHT22;5924;51.398;7.088;2023-09-19T13:50:34;23.00;99.90
11736;DHT22;5924;51.398;7.088;2023-09-19T13:53:02;23.20;99.90
11736;DHT22;5924;51.398;7.088;2023-09-19T13:55:28;23.20;99.90
11736;DHT22;5924;51.398;7.088;2023-09-19T13:57:53;22.90;99.90
11736;DHT22;5924;51.398;7.088;2023-09-19T14:00:22;22.40;99.90
11736;DHT22;5924;51.398;7.088;2023-09-19T14:02:48;22.00;99.90
11736;DHT22;5924;51.398;7.088;2023-09-19T14:05:15;21.70;99.90
11736;DHT22;5924;51.398;7.088;2023-09-19T14:07:45;21.50;99.90
11736;DHT22;5924;51.398;7.088;2023-09-19T14:10:11;21.20;99.90
11736;DHT22;5924;51.398;7.088;2023-09-19T14:12:38;20.90;99.90
11736;DHT22;5924;51.398;7.088;2023-09-19T14:15:07;20.60;99.90
11736;DHT22;5924;51.398;7.088;2023-09-19T14:17:33;20.50;99.90
11736;DHT22;5924;51.398;7.088;2023-09-19T14:19:59;20.30;99.90
11736;DHT22;5924;51.398;7.088;2023-09-19T14:22:25;20.10;99.90
11736;DHT22;5924;51.398;7.088;2023-09-19T14:24:50;20.00;99.90
11736;DHT22;5924;51.398;7.088;2023-09-19T14:27:17;20.00;99.90
11736;DHT22;5924;51.398;7.088;2023-09-19T14:29:42;22.10;99.90
11736;DHT22;5924;51.398;7.088;2023-09-19T14:32:08;20.00;99.90
11736;DHT22;5924;51.398;7.088;2023-09-19T14:34:34;20.00;99.90
11736;DHT22;5924;51.398;7.088;2023-09-19T14:37:02;19.80;99.90
11736;DHT22;5924;51.398;7.088;2023-09-19T14:39:29;19.80;99.90
11736;DHT22;5924;51.398;7.088;2023-09-19T14:41:55;19.70;99.90
11736;DHT22;5924;51.398;7.088;2023-09-19T14:44:20;19.60;99.90
11736;DHT22;5924;51.398;7.088;2023-09-19T14:46:46;19.60;99.90
11736;DHT22;5924;51.398;7.088;2023-09-19T14:49:11;19.70;99.90
11736;DHT22;5924;51.398;7.088;2023-09-19T14:51:38;19.80;99.90
11736;DHT22;5924;51.398;7.088;2023-09-19T14:54:07;19.80;99.90
11736;DHT22;5924;51.398;7.088;2023-09-19T14:56:33;19.70;99.90
11736;DHT22;5924;51.398;7.088;2023-09-19T14:58:59;19.70;99.90
11736;DHT22;5924;51.398;7.088;2023-09-19T15:01:25;19.60;99.90
11736;DHT22;5924;51.398;7.088;2023-09-19T15:03:51;19.60;99.90
11736;DHT22;5924;51.398;7.088;2023-09-19T15:06:17;19.60;99.90
11736;DHT22;5924;51.398;7.088;2023-09-19T15:08:46;19.50;99.90
11736;DHT22;5924;51.398;7.088;2023-09-19T15:11:16;19.40;99.90
11736;DHT22;5924;51.398;7.088;2023-09-19T15:13:43;19.30;99.90
11736;DHT22;5924;51.398;7.088;2023-09-19T15:16:09;19.30;99.90
11736;DHT22;5924;51.398;7.088;2023-09-19T15:18:40;19.30;99.90
11736;DHT22;5924;51.398;7.088;2023-09-19T15:21:07;19.20;99.90
11736;DHT22;5924;51.398;7.088;2023-09-19T15:23:34;19.10;99.90
11736;DHT22;5924;51.398;7.088;2023-09-19T15:26:06;19.00;99.90
11736;DHT22;5924;51.398;7.088;2023-09-19T15:28:33;19.00;99.90
11736;DHT22;5924;51.398;7.088;2023-09-19T15:33:29;18.90;99.90
11736;DHT22;5924;51.398;7.088;2023-09-19T15:36:13;18.90;99.90
11736;DHT22;5924;51.398;7.088;2023-09-19T15:39:01;18.90;99.90
11736;DHT22;5924;51.398;7.088;2023-09-19T15:41:32;18.90;99.90
11736;DHT22;5924;51.398;7.088;2023-09-19T15:44:00;18.90;99.90
11736;DHT22;5924;51.398;7.088;2023-09-19T15:46:27;19.00;99.90
11736;DHT22;5924;51.398;7.088;2023-09-19T15:48:53;19.00;99.90
11736;DHT22;5924;51.398;7.088;2023-09-19T15:51:19;19.10;99.90
11736;DHT22;5924;51.398;7.088;2023-09-19T15:53:47;19.30;99.90
11736;DHT22;5924;51.398;7.088;2023-09-19T15:56:14;19.50;99.90
11736;DHT22;5924;51.398;7.088;2023-09-19T15:58:40;19.60;99.90
11736;DHT22;5924;51.398;7.088;2023-09-19T16:01:06;19.60;99.90
11736;DHT22;5924;51.398;7.088;2023-09-19T16:03:39;19.60;99.90
11736;DHT22;5924;51.398;7.088;2023-09-19T16:06:13;19.60;99.90
11736;DHT22;5924;51.398;7.088;2023-09-19T16:08:43;19.50;99.90
11736;DHT22;5924;51.398;7.088;2023-09-19T16:11:10;19.50;99.90
11736;DHT22;5924;51.398;7.088;2023-09-19T16:13:37;19.30;99.90
11736;DHT22;5924;51.398;7.088;2023-09-19T16:16:03;19.20;99.90
11736;DHT22;5924;51.398;7.088;2023-09-19T16:18:29;19.00;99.90
11736;DHT22;5924;51.398;7.088;2023-09-19T16:21:05;18.80;99.90
11736;DHT22;5924;51.398;7.088;2023-09-19T16:23:31;18.60;99.90
11736;DHT22;5924;51.398;7.088;2023-09-19T16:26:17;18.50;99.90
11736;DHT22;5924;51.398;7.088;2023-09-19T16:28:47;18.40;99.90
11736;DHT22;5924;51.398;7.088;2023-09-19T16:31:13;18.40;99.90
11736;DHT22;5924;51.398;7.088;2023-09-19T16:33:40;18.40;99.90
11736;DHT22;5924;51.398;7.088;2023-09-19T16:36:14;18.40;99.90
11736;DHT22;5924;51.398;7.088;2023-09-19T16:38:42;18.50;99.90
11736;DHT22;5924;51.398;7.088;2023-09-19T16:41:07;18.50;99.90
11736;DHT22;5924;51.398;7.088;2023-09-19T16:43:34;18.50;99.90
11736;DHT22;5924;51.398;7.088;2023-09-19T16:46:05;18.40;99.90